createdAt,value
2022-12-05T00:01:23.951Z,101770.41
2022-12-05T00:04:25.905Z,101773.88
2022-12-05T00:07:28.739Z,101777.28
2022-12-05T00:10:30.617Z,101776.44
2022-12-05T00:13:32.486Z,101777.25
2022-12-05T00:16:37.119Z,101766.88
2022-12-05T00:19:39.616Z,101757.28
2022-12-05T00:22:41.453Z,101768.53
2022-12-05T00:25:43.466Z,101759.78
2022-12-05T00:28:45.535Z,101768.50
2022-12-05T00:31:47.708Z,101760.69
2022-12-05T00:34:49.676Z,101756.34
2022-12-05T00:37:51.523Z,101758.00
2022-12-05T00:40:53.367Z,101761.50
2022-12-05T00:43:56.207Z,101751.13
2022-12-05T00:46:57.875Z,101749.34
2022-12-05T00:50:00.924Z,101752.66
2022-12-05T00:53:02.806Z,101745.84
2022-12-05T00:56:13.973Z,101745.78
2022-12-05T00:59:19.318Z,101749.25
2022-12-05T01:02:21.202Z,101738.00
2022-12-05T01:05:23.019Z,101737.06
2022-12-05T01:08:25.208Z,101737.91
2022-12-05T01:11:28.086Z,101742.28
2022-12-05T01:14:29.825Z,101739.56
2022-12-05T01:17:31.804Z,101744.81
2022-12-05T01:20:33.608Z,101744.81
2022-12-05T01:23:35.427Z,101749.09
2022-12-05T01:26:38.253Z,101749.09
2022-12-05T01:29:40.019Z,101747.31
2022-12-05T01:32:41.844Z,101742.13
2022-12-05T01:35:44.605Z,101751.63
2022-12-05T01:38:46.880Z,101748.22
2022-12-05T01:41:50.312Z,101750.75
2022-12-05T01:44:52.239Z,101745.56
2022-12-05T01:47:54.514Z,101753.31
2022-12-05T01:50:58.615Z,101748.94
2022-12-05T01:54:01.892Z,101751.50
2022-12-05T01:57:08.111Z,101747.16
2022-12-05T02:00:16.536Z,101747.16
2022-12-05T02:03:20.874Z,101736.78
2022-12-05T02:06:24.935Z,101742.81
2022-12-05T02:09:26.824Z,101736.69
2022-12-05T02:12:29.023Z,101741.94
2022-12-05T02:15:45.732Z,101731.53
2022-12-05T02:18:56.528Z,101722.00
2022-12-05T02:21:58.365Z,101725.38
2022-12-05T02:25:26.915Z,101723.72
2022-12-05T02:29:03.945Z,101728.03
2022-12-05T02:32:38.349Z,101725.38
2022-12-05T02:35:55.791Z,101719.34
2022-12-05T02:39:29.803Z,101716.72
2022-12-05T02:42:39.142Z,101726.19
2022-12-05T02:45:44.175Z,101715.88
2022-12-05T02:48:48.423Z,101729.69
2022-12-05T02:51:57.133Z,101724.41
2022-12-05T02:55:00.255Z,101731.38
2022-12-05T02:58:07.735Z,101729.59
2022-12-05T03:01:09.706Z,101732.13
2022-12-05T03:04:13.802Z,101733.00
2022-12-05T03:07:19.682Z,101728.66
2022-12-05T03:10:25.280Z,101730.38
2022-12-05T03:13:43.609Z,101728.59
2022-12-05T03:16:50.388Z,101725.13
2022-12-05T03:20:07.375Z,101733.69
2022-12-05T03:23:16.235Z,101729.31
2022-12-05T03:26:30.179Z,101731.94
2022-12-05T03:29:59.028Z,101730.22
2022-12-05T03:33:04.221Z,101732.84
2022-12-05T03:36:31.874Z,101724.19
2022-12-05T03:39:38.407Z,101731.00
2022-12-05T03:42:55.104Z,101730.13
2022-12-05T03:46:11.908Z,101732.72
2022-12-05T03:49:20.647Z,101738.84
2022-12-05T03:52:30.053Z,101735.34
2022-12-05T03:55:35.616Z,101731.06
2022-12-05T03:58:45.250Z,101725.84
2022-12-05T04:01:49.814Z,101730.94
2022-12-05T04:05:07.129Z,101733.59
2022-12-05T04:08:22.502Z,101737.16
2022-12-05T04:11:27.582Z,101733.66
2022-12-05T04:14:40.264Z,101742.34
2022-12-05T04:17:53.742Z,101731.03
2022-12-05T04:21:17.207Z,101727.47
2022-12-05T04:24:55.753Z,101718.75
2022-12-05T04:28:02.207Z,101718.03
2022-12-05T04:31:10.170Z,101714.50
2022-12-05T04:34:16.106Z,101706.69
2022-12-05T04:37:23.616Z,101704.13
2022-12-05T04:40:33.973Z,101699.81
2022-12-05T04:43:41.024Z,101704.06
2022-12-05T04:46:45.018Z,101701.50
2022-12-05T04:49:52.185Z,101704.88
2022-12-05T04:52:59.454Z,101708.41
2022-12-05T04:56:04.563Z,101697.94
2022-12-05T04:59:06.447Z,101700.56
2022-12-05T05:02:10.581Z,101699.56
2022-12-05T05:05:16.942Z,101698.69
2022-12-05T05:08:21.425Z,101695.34
2022-12-05T05:11:29.228Z,101697.84
2022-12-05T05:14:31.287Z,101696.09
2022-12-05T05:17:33.174Z,101697.03
2022-12-05T05:20:35.024Z,101702.09
2022-12-05T05:23:36.887Z,101697.75
2022-12-05T05:26:41.468Z,101692.56
2022-12-05T05:29:43.317Z,101696.00
2022-12-05T05:32:45.334Z,101702.13
2022-12-05T05:35:47.240Z,101703.88
2022-12-05T05:38:52.060Z,101706.38
2022-12-05T05:41:53.909Z,101696.13
2022-12-05T05:44:55.759Z,101694.38
2022-12-05T05:47:57.949Z,101695.22
2022-12-05T05:51:00.883Z,101695.25
2022-12-05T05:54:02.996Z,101698.69
2022-12-05T05:57:04.874Z,101703.06
2022-12-05T06:00:08.419Z,101703.16
2022-12-05T06:03:10.432Z,101711.00
2022-12-05T06:06:14.091Z,101710.22
2022-12-05T06:09:16.048Z,101713.69
2022-12-05T06:12:17.855Z,101711.16
2022-12-05T06:15:20.726Z,101708.63
2022-12-05T06:18:22.530Z,101709.53
2022-12-05T06:21:25.110Z,101696.66
2022-12-05T06:24:27.414Z,101710.53
2022-12-05T06:27:31.399Z,101703.59
2022-12-05T06:30:33.174Z,101697.72
2022-12-05T06:33:35.060Z,101703.00
2022-12-05T06:36:36.927Z,101708.34
2022-12-05T06:39:38.866Z,101701.47
2022-12-05T06:42:40.707Z,101712.00
2022-12-05T06:45:42.553Z,101705.09
2022-12-05T06:48:44.453Z,101706.19
2022-12-05T06:51:46.371Z,101705.44
2022-12-05T06:54:49.271Z,101704.69
2022-12-05T06:57:51.057Z,101704.75
2022-12-05T07:01:11.961Z,101704.88
2022-12-05T07:04:25.710Z,101700.75
2022-12-05T07:07:29.917Z,101690.44
2022-12-05T07:10:31.879Z,101700.88
2022-12-05T07:13:33.809Z,101693.22
2022-12-05T07:16:35.760Z,101689.91
2022-12-05T07:19:37.777Z,101684.81
2022-12-05T07:22:39.613Z,101688.34
2022-12-05T07:25:41.903Z,101689.25
2022-12-05T07:28:43.932Z,101691.06
2022-12-05T07:31:45.870Z,101691.13
2022-12-05T07:34:52.105Z,101684.22
2022-12-05T07:37:56.771Z,101688.59
2022-12-05T07:40:58.591Z,101680.78
2022-12-05T07:44:00.946Z,101674.72
2022-12-05T07:47:02.795Z,101674.72
2022-12-05T07:50:05.263Z,101668.59
2022-12-05T07:53:07.259Z,101671.19
2022-12-05T07:56:10.175Z,101679.00
2022-12-05T07:59:12.075Z,101677.22
2022-12-05T08:02:14.076Z,101672.81
2022-12-05T08:05:16.639Z,101670.22
2022-12-05T08:08:18.694Z,101667.41
2022-12-05T08:11:24.118Z,101662.16
2022-12-05T08:14:25.930Z,101660.34
2022-12-05T08:17:30.885Z,101658.63
2022-12-05T08:20:32.785Z,101655.06
2022-12-05T08:23:35.512Z,101647.13
2022-12-05T08:26:38.931Z,101640.97
2022-12-05T08:29:40.763Z,101638.16
2022-12-05T08:32:42.880Z,101624.91
2022-12-05T08:35:44.785Z,101627.47
2022-12-05T08:38:47.136Z,101616.75
2022-12-05T08:41:49.790Z,101616.59
2022-12-05T08:44:51.677Z,101607.91
2022-12-05T08:47:53.550Z,101606.84
2022-12-05T08:50:55.531Z,101601.44
2022-12-05T08:53:57.466Z,101593.50
2022-12-05T08:56:59.507Z,101589.38
2022-12-05T09:00:01.519Z,101588.53
2022-12-05T16:55:36.715Z,101340.53
2022-12-05T16:58:39.004Z,101342.09
2022-12-05T17:01:41.007Z,101335.84
2022-12-05T17:04:43.473Z,101334.88
2022-12-05T17:07:45.390Z,101330.47
2022-12-05T17:10:47.594Z,101333.03
2022-12-05T17:13:50.697Z,101327.81
2022-12-05T17:16:52.651Z,101319.94
2022-12-05T17:19:54.681Z,101318.22
2022-12-05T17:22:58.659Z,101318.22
2022-12-05T17:26:00.848Z,101322.53
2022-12-05T17:29:03.689Z,101316.44
2022-12-05T17:32:05.879Z,101317.31
2022-12-05T17:35:15.757Z,101315.59
2022-12-05T17:38:17.731Z,101310.31
2022-12-05T17:41:23.577Z,101306.88
2022-12-05T17:44:25.557Z,101297.31
2022-12-05T17:47:27.522Z,101302.50
2022-12-05T17:50:30.818Z,101315.59
2022-12-05T17:53:33.142Z,101319.91
2022-12-05T17:56:36.095Z,101314.66
2022-12-05T17:59:40.361Z,101308.59
2022-12-05T18:02:47.119Z,101310.34
2022-12-05T18:05:52.407Z,101306.91
2022-12-05T18:08:55.993Z,101305.13
2022-12-05T18:11:59.214Z,101317.34
2022-12-05T18:15:01.251Z,101307.75
2022-12-05T18:18:06.015Z,101304.22
2022-12-05T18:21:15.215Z,101309.47
2022-12-05T18:24:21.216Z,101303.38
2022-12-05T18:27:23.231Z,101301.66
2022-12-05T18:30:25.394Z,101302.53
2022-12-05T18:33:28.666Z,101304.22
2022-12-05T18:36:30.606Z,101299.91
2022-12-05T18:39:35.383Z,101292.97
2022-12-05T18:42:38.166Z,101290.34
2022-12-05T18:45:40.138Z,101283.41
2022-12-05T18:48:50.374Z,101291.25
2022-12-05T18:51:55.637Z,101290.41
2022-12-05T18:55:16.263Z,101297.41
2022-12-05T18:58:20.574Z,101295.63
2022-12-05T19:01:23.217Z,101300.84
2022-12-05T19:04:28.843Z,101301.75
2022-12-05T19:07:32.937Z,101304.34
2022-12-05T19:10:36.986Z,101306.06
2022-12-05T19:24:03.838Z,101303.53
2022-12-05T19:27:08.029Z,101305.28
2022-12-05T19:30:10.755Z,101307.03
2022-12-05T19:33:13.565Z,101296.63
2022-12-05T19:36:22.791Z,101303.56
2022-12-05T19:39:30.373Z,101301.81
2022-12-05T19:42:32.728Z,101307.03
2022-12-05T19:45:38.276Z,101294.03
2022-12-05T19:48:40.325Z,101293.19
2022-12-05T19:51:42.321Z,101282.75
2022-12-05T19:54:45.280Z,101277.53
2022-12-05T19:57:47.003Z,101274.91
2022-12-05T20:00:52.520Z,101282.78
2022-12-05T20:04:00.702Z,101284.53
2022-12-05T20:07:04.371Z,101279.38
2022-12-05T20:10:06.614Z,101278.50
2022-12-05T20:13:44.743Z,101275.06
2022-12-05T20:16:30.897Z,101279.44
2022-12-05T20:19:32.727Z,101273.34
2022-12-05T20:22:36.504Z,101274.22
2022-12-05T20:25:38.464Z,101268.16
2022-12-05T20:28:41.394Z,101270.78
2022-12-05T20:31:43.366Z,101268.16
2022-12-05T20:34:45.336Z,101264.69
2022-12-05T20:37:47.284Z,101270.78
2022-12-05T20:40:49.077Z,101256.00
2022-12-05T20:43:55.148Z,101255.16
2022-12-05T20:47:01.515Z,101262.16
2022-12-05T20:50:03.605Z,101256.94
2022-12-05T20:53:05.495Z,101252.59
2022-12-05T20:56:09.868Z,101263.06
2022-12-05T20:59:13.974Z,101252.66
2022-12-05T21:02:15.971Z,101253.50
2022-12-05T21:05:17.804Z,101250.03
2022-12-05T21:08:19.966Z,101247.44
2022-12-05T21:11:23.538Z,101258.75
2022-12-05T21:14:25.451Z,101257.88
2022-12-05T21:17:27.572Z,101260.47
2022-12-05T21:20:29.377Z,101257.03
2022-12-05T21:23:31.752Z,101250.09
2022-12-05T21:26:34.950Z,101255.34
2022-12-05T21:29:37.262Z,101257.09
2022-12-05T21:32:39.357Z,101261.47
2022-12-05T21:35:41.227Z,101257.09
2022-12-05T21:38:44.001Z,101257.97
2022-12-05T21:41:45.964Z,101264.94
2022-12-05T21:44:49.406Z,101250.19
2022-12-05T21:47:51.352Z,101256.31
2022-12-05T21:50:53.495Z,101250.25
2022-12-05T21:53:55.357Z,101245.94
2022-12-05T21:56:57.409Z,101242.47
2022-12-05T21:59:59.466Z,101245.06
2022-12-05T22:03:02.196Z,101238.13
2022-12-05T22:06:09.397Z,101238.16
2022-12-05T22:09:12.081Z,101232.97
2022-12-05T22:12:14.021Z,101232.94
2022-12-05T22:15:15.975Z,101231.22
2022-12-05T22:18:17.835Z,101229.50
2022-12-05T22:21:21.367Z,101218.22
2022-12-05T22:24:23.203Z,101218.22
2022-12-05T22:27:25.112Z,101219.97
2022-12-05T22:30:26.955Z,101215.63
2022-12-05T22:33:29.437Z,101213.03
2022-12-05T22:36:31.376Z,101211.28
2022-12-05T22:39:33.243Z,101203.47
2022-12-05T22:42:35.248Z,101195.66
2022-12-05T22:45:37.098Z,101185.28
2022-12-05T22:48:39.157Z,101184.41
2022-12-05T22:51:41.219Z,101178.34
2022-12-05T22:54:43.102Z,101182.69
2022-12-05T22:57:44.972Z,101175.75
2022-12-05T23:00:47.149Z,101172.28
2022-12-05T23:03:53.955Z,101165.34
2022-12-05T23:06:55.910Z,101165.34
2022-12-05T23:09:58.196Z,101167.94
2022-12-05T23:13:00.356Z,101172.28
2022-12-05T23:16:10.727Z,101166.25
2022-12-05T23:19:12.792Z,101157.56
2022-12-05T23:22:14.635Z,101156.72
2022-12-05T23:25:16.840Z,101163.66
2022-12-05T23:28:18.785Z,101168.00
2022-12-05T23:31:20.968Z,101174.94
2022-12-05T23:34:22.833Z,101170.63
2022-12-05T23:37:24.715Z,101174.97
2022-12-05T23:40:26.582Z,101173.28
2022-12-05T23:43:32.311Z,101171.53
2022-12-05T23:46:34.249Z,101167.16
2022-12-05T23:49:36.240Z,101165.47
2022-12-05T23:52:38.213Z,101166.34
2022-12-05T23:55:40.116Z,101164.63
2022-12-05T23:58:43.542Z,101168.09
